createdAt,value
2022-10-18T00:00:27.412Z,101737.09
2022-10-18T00:02:29.210Z,101740.50
2022-10-18T00:04:31.520Z,101728.16
2022-10-18T00:06:33.330Z,101732.03
2022-10-18T00:08:36.233Z,101737.34
2022-10-18T00:10:38.341Z,101738.06
2022-10-18T00:12:40.469Z,101734.56
2022-10-18T00:14:42.218Z,101736.25
2022-10-18T00:16:44.075Z,101725.63
2022-10-18T00:18:46.101Z,101726.53
2022-10-18T00:20:59.268Z,101724.47
2022-10-18T00:23:01.458Z,101714.22
2022-10-18T00:25:03.380Z,101704.38
2022-10-18T00:27:05.071Z,101720.69
2022-10-18T00:29:07.374Z,101719.34
2022-10-18T00:31:12.717Z,101718.38
2022-10-18T00:33:14.424Z,101715.00
2022-10-18T00:35:16.548Z,101721.09
2022-10-18T00:37:19.083Z,101721.53
2022-10-18T00:39:21.943Z,101713.44
2022-10-18T00:41:34.196Z,101711.88
2022-10-18T00:43:57.616Z,101722.97
2022-10-18T00:45:59.315Z,101713.19
2022-10-18T00:48:04.606Z,101716.28
2022-10-18T00:50:08.288Z,101721.09
2022-10-18T00:52:11.973Z,101712.72
2022-10-18T00:54:16.642Z,101708.66
2022-10-18T00:56:18.598Z,101708.25
2022-10-18T00:58:20.601Z,101703.63
2022-10-18T01:00:22.302Z,101708.97
2022-10-18T01:02:25.146Z,101710.66
2022-10-18T01:04:26.946Z,101711.22
2022-10-18T01:06:29.430Z,101706.41
2022-10-18T01:08:38.279Z,101711.91
2022-10-18T01:10:59.872Z,101710.94
2022-10-18T01:13:29.344Z,101711.53
2022-10-18T01:15:34.121Z,101708.34
2022-10-18T01:18:00.968Z,101720.97
2022-10-18T01:20:27.437Z,101711.59
2022-10-18T01:22:37.920Z,101715.88
2022-10-18T01:24:54.536Z,101707.63
2022-10-18T01:27:02.091Z,101712.81
2022-10-18T01:29:25.529Z,101711.84
2022-10-18T01:31:49.023Z,101711.97
2022-10-18T01:34:05.320Z,101710.56
2022-10-18T01:36:19.990Z,101701.69
2022-10-18T01:38:24.914Z,101706.16
2022-10-18T01:40:29.747Z,101705.41
2022-10-18T01:42:32.324Z,101703.47
2022-10-18T01:44:35.562Z,101711.00
2022-10-18T01:46:39.665Z,101700.38
2022-10-18T01:48:41.627Z,101713.38
2022-10-18T01:50:43.606Z,101700.81
2022-10-18T01:52:50.332Z,101699.09
2022-10-18T01:54:54.212Z,101693.91
2022-10-18T01:57:05.666Z,101693.34
2022-10-18T01:59:38.687Z,101698.69
2022-10-18T02:02:08.333Z,101706.06
2022-10-18T02:04:41.391Z,101705.22
2022-10-18T02:06:45.343Z,101707.44
2022-10-18T02:08:55.322Z,101706.91
2022-10-18T02:11:02.602Z,101708.28
2022-10-18T02:13:05.000Z,101716.97
2022-10-18T02:15:09.490Z,101706.81
2022-10-18T02:17:13.159Z,101712.75
2022-10-18T02:19:19.990Z,101714.53
2022-10-18T02:21:22.748Z,101718.28
2022-10-18T02:23:25.929Z,101716.03
2022-10-18T02:25:31.130Z,101711.81
2022-10-18T02:27:32.987Z,101713.25
2022-10-18T02:29:35.531Z,101717.97
2022-10-18T02:31:45.154Z,101711.50
2022-10-18T02:33:53.280Z,101721.16
2022-10-18T02:36:05.495Z,101715.00
2022-10-18T02:38:09.822Z,101713.56
2022-10-18T02:40:11.742Z,101709.38
2022-10-18T02:42:15.085Z,101712.88
2022-10-18T02:44:16.831Z,101704.53
2022-10-18T02:46:19.646Z,101713.97
2022-10-18T02:48:21.428Z,101708.69
2022-10-18T02:50:23.113Z,101710.88
2022-10-18T02:52:25.037Z,101712.78
2022-10-18T02:54:26.983Z,101719.81
2022-10-18T02:56:28.815Z,101709.41
2022-10-18T02:58:30.669Z,101715.81
2022-10-18T03:00:32.413Z,101703.66
2022-10-18T03:02:34.263Z,101718.22
2022-10-18T03:04:35.971Z,101716.94
2022-10-18T03:06:37.987Z,101716.94
2022-10-18T03:08:39.890Z,101712.28
2022-10-18T03:10:46.363Z,101710.91
2022-10-18T03:12:48.173Z,101714.09
2022-10-18T03:14:49.872Z,101713.09
2022-10-18T03:16:51.704Z,101717.44
2022-10-18T03:18:53.496Z,101705.06
2022-10-18T03:20:55.197Z,101714.22
2022-10-18T03:22:57.050Z,101714.31
2022-10-18T03:24:58.793Z,101717.72
2022-10-18T03:27:00.519Z,101717.59
2022-10-18T03:29:02.282Z,101713.59
2022-10-18T03:31:04.922Z,101724.22
2022-10-18T03:33:06.984Z,101720.25
2022-10-18T03:35:09.430Z,101715.19
2022-10-18T03:37:11.310Z,101708.06
2022-10-18T03:39:13.054Z,101708.69
2022-10-18T03:41:14.807Z,101706.28
2022-10-18T03:43:16.716Z,101717.88
2022-10-18T03:45:18.407Z,101714.75
2022-10-18T03:47:20.149Z,101719.47
2022-10-18T03:49:22.043Z,101712.34
2022-10-18T03:51:23.806Z,101727.78
2022-10-18T03:53:25.614Z,101722.59
2022-10-18T03:55:27.470Z,101728.25
2022-10-18T03:57:29.226Z,101722.94
2022-10-18T03:59:30.985Z,101723.38
2022-10-18T04:01:32.756Z,101725.78
2022-10-18T04:03:34.522Z,101725.69
2022-10-18T04:05:36.284Z,101725.78
2022-10-18T04:07:38.086Z,101723.25
2022-10-18T04:09:39.800Z,101731.09
2022-10-18T04:11:41.586Z,101730.38
2022-10-18T04:13:43.488Z,101727.72
2022-10-18T04:15:45.194Z,101716.25
2022-10-18T04:17:47.289Z,101718.97
2022-10-18T04:19:49.196Z,101722.59
2022-10-18T04:21:50.882Z,101724.88
2022-10-18T04:23:52.738Z,101719.44
2022-10-18T04:25:54.898Z,101730.78
2022-10-18T04:27:56.646Z,101737.63
2022-10-18T04:29:58.395Z,101732.31
2022-10-18T04:32:00.597Z,101738.88
2022-10-18T04:34:02.415Z,101728.50
2022-10-18T04:36:05.356Z,101738.66
2022-10-18T04:38:07.283Z,101741.59
2022-10-18T04:40:09.581Z,101741.88
2022-10-18T04:42:11.330Z,101746.22
2022-10-18T04:44:13.388Z,101737.75
2022-10-18T04:46:15.076Z,101742.81
2022-10-18T04:48:18.000Z,101738.25
2022-10-18T04:50:19.975Z,101735.94
2022-10-18T04:52:21.661Z,101742.31
2022-10-18T04:54:26.489Z,101736.38
2022-10-18T04:56:30.481Z,101741.75
2022-10-18T04:58:32.770Z,101734.41
2022-10-18T05:00:39.774Z,101734.28
2022-10-18T05:02:41.946Z,101733.75
2022-10-18T05:04:43.623Z,101742.91
2022-10-18T05:06:45.640Z,101730.88
2022-10-18T05:08:47.649Z,101733.56
2022-10-18T05:10:49.359Z,101723.78
2022-10-18T05:12:51.159Z,101728.34
2022-10-18T05:14:53.309Z,101727.38
2022-10-18T05:16:55.027Z,101729.91
2022-10-18T05:18:56.830Z,101733.28
2022-10-18T05:20:58.832Z,101736.91
2022-10-18T05:23:00.543Z,101730.03
2022-10-18T05:25:02.323Z,101735.22
2022-10-18T05:27:04.262Z,101734.38
2022-10-18T05:29:06.112Z,101740.41
2022-10-18T05:31:10.036Z,101737.28
2022-10-18T05:33:11.875Z,101727.41
2022-10-18T05:35:13.618Z,101737.59
2022-10-18T05:37:15.379Z,101741.94
2022-10-18T05:39:17.235Z,101744.97
2022-10-18T05:41:19.053Z,101743.88
2022-10-18T05:43:21.362Z,101745.88
2022-10-18T05:45:23.175Z,101744.81
2022-10-18T05:47:25.001Z,101743.38
2022-10-18T05:49:27.051Z,101730.84
2022-10-18T05:51:28.951Z,101730.00
2022-10-18T05:53:38.375Z,101738.69
2022-10-18T05:55:40.316Z,101744.69
2022-10-18T05:57:42.267Z,101734.53
2022-10-18T05:59:44.540Z,101745.88
2022-10-18T06:01:46.446Z,101755.47
2022-10-18T06:03:48.859Z,101764.16
2022-10-18T06:05:50.577Z,101761.25
2022-10-18T06:07:52.525Z,101772.22
2022-10-18T06:09:54.286Z,101770.34
2022-10-18T06:11:56.277Z,101761.47
2022-10-18T06:13:58.315Z,101758.88
2022-10-18T06:16:00.127Z,101761.03
2022-10-18T06:18:01.886Z,101757.16
2022-10-18T06:20:04.267Z,101709.00
2022-10-18T06:22:06.151Z,101757.28
2022-10-18T06:24:07.827Z,101757.88
2022-10-18T06:26:11.818Z,101763.03
2022-10-18T06:28:13.613Z,101764.81
2022-10-18T06:30:15.455Z,101777.06
2022-10-18T06:32:17.479Z,101775.97
2022-10-18T06:34:19.609Z,101770.38
2022-10-18T06:36:21.866Z,101787.69
2022-10-18T06:38:24.039Z,101788.28
2022-10-18T06:40:26.031Z,101773.47
2022-10-18T06:42:27.730Z,101787.66
2022-10-18T06:44:29.449Z,101777.44
2022-10-18T06:46:31.903Z,101781.22
2022-10-18T06:48:38.739Z,101785.84
2022-10-18T06:50:40.483Z,101785.56
2022-10-18T06:52:42.447Z,101772.22
2022-10-18T06:54:45.419Z,101780.84
2022-10-18T06:56:47.328Z,101785.81
2022-10-18T06:58:49.308Z,101779.25
2022-10-18T07:00:51.029Z,101777.22
2022-10-18T07:02:52.777Z,101775.19
2022-10-18T07:04:55.325Z,101789.75
2022-10-18T07:06:57.078Z,101789.13
2022-10-18T07:08:58.882Z,101791.22
2022-10-18T07:11:01.332Z,101790.78
2022-10-18T07:13:27.370Z,101792.00
2022-10-18T07:15:24.785Z,101786.50
2022-10-18T07:17:27.578Z,101785.66
2022-10-18T07:19:29.279Z,101795.06
2022-10-18T07:21:31.259Z,101790.38
2022-10-18T07:23:34.749Z,101797.81
2022-10-18T07:25:36.441Z,101796.81
2022-10-18T07:27:40.499Z,101795.50
2022-10-18T07:29:42.753Z,101797.03
2022-10-18T07:31:44.444Z,101795.88
2022-10-18T07:33:46.177Z,101797.66
2022-10-18T07:35:48.363Z,101796.19
2022-10-18T07:37:50.095Z,101799.94
2022-10-18T07:39:51.780Z,101791.88
2022-10-18T07:41:53.655Z,101799.66
2022-10-18T07:43:55.407Z,101799.66
2022-10-18T07:46:00.301Z,101803.25
2022-10-18T07:48:02.679Z,101804.09
2022-10-18T07:50:04.558Z,101797.28
2022-10-18T07:52:06.322Z,101803.00
2022-10-18T07:54:09.177Z,101804.41
2022-10-18T07:56:16.705Z,101794.09
2022-10-18T07:58:18.534Z,101795.31
2022-10-18T08:00:20.793Z,101794.00
2022-10-18T08:02:25.257Z,101787.22
2022-10-18T08:04:26.948Z,101789.31
2022-10-18T08:06:28.883Z,101781.50
2022-10-18T08:08:30.669Z,101784.09
2022-10-18T08:10:34.310Z,101790.47
2022-10-18T08:12:36.090Z,101785.59
2022-10-18T08:14:37.847Z,101785.88
2022-10-18T08:16:39.561Z,101764.81
2022-10-18T08:18:41.477Z,101776.66
2022-10-18T08:20:46.549Z,101777.63
2022-10-18T08:22:51.275Z,101777.38
2022-10-18T08:24:53.141Z,101774.28
2022-10-18T08:26:55.070Z,101771.41
2022-10-18T08:29:10.678Z,101779.00
2022-10-18T08:31:19.516Z,101772.22
2022-10-18T08:33:21.453Z,101772.63
2022-10-18T08:35:23.193Z,101764.44
2022-10-18T08:37:25.131Z,101759.16
2022-10-18T08:39:30.587Z,101749.31
2022-10-18T08:41:44.058Z,101767.97
2022-10-18T08:44:29.327Z,101767.53
2022-10-18T08:46:33.406Z,101765.44
2022-10-18T08:48:48.687Z,101764.84
2022-10-18T08:50:52.218Z,101763.69
2022-10-18T08:52:59.014Z,101761.19
2022-10-18T08:55:25.078Z,101762.00
2022-10-18T08:57:27.245Z,101763.47
2022-10-18T08:59:39.584Z,101766.06
2022-10-18T09:01:54.326Z,101765.50
2022-10-18T09:05:00.981Z,101750.63
2022-10-18T09:07:37.367Z,101753.16
2022-10-18T09:10:04.135Z,101745.88
2022-10-18T09:12:35.110Z,101739.94
2022-10-18T09:14:49.424Z,101737.78
2022-10-18T09:17:13.664Z,101742.69
2022-10-18T09:19:26.657Z,101747.91
2022-10-18T09:21:43.780Z,101746.13
2022-10-18T09:24:16.131Z,101733.13
2022-10-18T09:26:23.460Z,101743.97
2022-10-18T09:28:46.996Z,101735.50
2022-10-18T09:31:10.273Z,101739.25
2022-10-18T09:33:23.868Z,101726.09
2022-10-18T09:35:34.064Z,101722.16
2022-10-18T09:37:36.225Z,101717.78
2022-10-18T09:39:39.276Z,101719.06
2022-10-18T09:41:52.695Z,101723.41
2022-10-18T09:44:03.607Z,101722.50
2022-10-18T09:46:07.135Z,101724.13
2022-10-18T09:48:27.228Z,101721.88
2022-10-18T09:50:46.613Z,101716.88
2022-10-18T09:52:57.366Z,101717.72
2022-10-18T09:55:03.444Z,101718.97
2022-10-18T09:57:11.824Z,101712.38
2022-10-18T09:59:42.809Z,101704.16
2022-10-18T10:01:44.601Z,101692.13
2022-10-18T10:03:46.357Z,101697.47
2022-10-18T10:06:02.456Z,101693.38
2022-10-18T10:08:04.370Z,101692.81
2022-10-18T10:10:26.789Z,101690.50
2022-10-18T10:12:30.514Z,101688.25
2022-10-18T10:14:43.690Z,101686.25
2022-10-18T10:17:04.825Z,101684.56
2022-10-18T10:19:06.618Z,101688.06
2022-10-18T10:21:15.187Z,101680.00
2022-10-18T10:23:21.989Z,101682.94
2022-10-18T10:25:32.623Z,101681.19
2022-10-18T10:27:45.507Z,101673.94
2022-10-18T10:29:47.453Z,101664.00
2022-10-18T10:32:02.502Z,101651.47
2022-10-18T10:34:20.515Z,101661.47
2022-10-18T10:36:22.402Z,101660.03
2022-10-18T10:38:26.954Z,101660.94
2022-10-18T10:40:30.999Z,101661.03
2022-10-18T10:42:34.139Z,101660.94
2022-10-18T10:44:36.993Z,101662.41
2022-10-18T10:46:38.929Z,101658.31
2022-10-18T10:49:04.232Z,101647.69
2022-10-18T10:51:18.317Z,101642.28
2022-10-18T10:53:29.136Z,101638.38
2022-10-18T10:55:35.920Z,101634.91
2022-10-18T10:57:38.572Z,101626.78
2022-10-18T10:59:48.231Z,101632.81
2022-10-18T11:02:10.138Z,101623.50
2022-10-18T11:04:29.877Z,101631.00
2022-10-18T11:06:34.599Z,101626.75
2022-10-18T11:08:41.535Z,101630.06
2022-10-18T11:10:56.461Z,101625.53
2022-10-18T11:13:24.931Z,101620.06
2022-10-18T11:15:33.109Z,101615.09
2022-10-18T11:17:57.837Z,101603.69
2022-10-18T11:20:21.855Z,101609.72
2022-10-18T11:22:28.553Z,101615.78
2022-10-18T11:24:31.574Z,101610.09
2022-10-18T11:27:16.899Z,101601.44
2022-10-18T11:29:44.345Z,101594.41
2022-10-18T11:32:13.492Z,101599.44
2022-10-18T11:34:49.649Z,101588.03
2022-10-18T11:37:26.461Z,101577.66
2022-10-18T11:39:51.233Z,101576.63
2022-10-18T11:42:21.557Z,101576.16
2022-10-18T11:44:43.188Z,101570.81
2022-10-18T11:46:51.069Z,101567.59
2022-10-18T11:49:30.893Z,101550.19
2022-10-18T11:52:07.713Z,101558.22
2022-10-18T11:54:43.667Z,101552.53
2022-10-18T11:57:00.651Z,101548.16
2022-10-18T11:59:23.601Z,101554.53
2022-10-18T12:02:21.854Z,101549.84
2022-10-18T12:04:34.869Z,101535.97
2022-10-18T12:06:43.362Z,101535.78
2022-10-18T12:08:57.445Z,101530.59
2022-10-18T12:11:05.887Z,101536.44
2022-10-18T12:13:16.646Z,101541.34
2022-10-18T12:15:24.930Z,101536.41
2022-10-18T12:17:43.909Z,101542.28
2022-10-18T12:19:50.582Z,101519.78
2022-10-18T12:21:54.020Z,101533.97
2022-10-18T12:24:08.497Z,101527.56
2022-10-18T12:26:11.309Z,101521.97
2022-10-18T12:28:28.333Z,101530.59
2022-10-18T12:31:03.272Z,101536.59
2022-10-18T12:33:33.477Z,101539.41
2022-10-18T12:35:49.329Z,101519.53
2022-10-18T12:38:02.989Z,101515.53
2022-10-18T12:40:14.282Z,101515.81
2022-10-18T12:42:23.980Z,101505.38
2022-10-18T12:44:35.344Z,101505.41
2022-10-18T12:46:53.426Z,101505.59
2022-10-18T12:49:05.771Z,101506.16
2022-10-18T12:51:14.869Z,101480.53
2022-10-18T12:53:20.332Z,101485.88
2022-10-18T12:55:22.514Z,101489.41
2022-10-18T12:57:24.406Z,101478.31
2022-10-18T12:59:26.053Z,101481.91
2022-10-18T13:01:50.595Z,101488.56
2022-10-18T13:03:55.626Z,101476.94
2022-10-18T13:06:01.800Z,101466.22
2022-10-18T13:08:29.346Z,101469.00
2022-10-18T13:10:35.880Z,101482.16
2022-10-18T13:12:49.232Z,101501.06
2022-10-18T13:15:12.668Z,101515.66
2022-10-18T13:17:46.917Z,101513.41
2022-10-18T13:20:24.021Z,101481.22
2022-10-18T13:22:38.807Z,101481.78
2022-10-18T13:24:57.656Z,101463.72
2022-10-18T13:27:34.861Z,101466.59
2022-10-18T13:29:46.120Z,101469.09
2022-10-18T13:33:50.952Z,101494.56
2022-10-18T13:35:58.586Z,101487.47
2022-10-18T13:40:25.089Z,101485.72
2022-10-18T13:42:33.791Z,101468.44
2022-10-18T13:44:37.067Z,101464.84
2022-10-18T13:46:39.045Z,101445.63
2022-10-18T13:48:40.695Z,101444.47
2022-10-18T13:50:44.767Z,101417.00
2022-10-18T13:53:14.240Z,101415.16
2022-10-18T13:55:43.748Z,101409.16
2022-10-18T13:58:07.106Z,101419.50
2022-10-18T14:00:27.402Z,101417.38
2022-10-18T14:05:26.823Z,101361.94
2022-10-18T14:07:29.770Z,101408.63
2022-10-18T14:11:46.432Z,101410.00
2022-10-18T14:13:55.234Z,101414.41
2022-10-18T14:16:06.465Z,101440.91
2022-10-18T14:18:21.139Z,101452.25
2022-10-18T14:20:25.916Z,101455.44
2022-10-18T14:22:38.231Z,101462.06
2022-10-18T14:24:45.832Z,101467.34
2022-10-18T14:26:47.901Z,101467.81
2022-10-18T14:29:04.526Z,101465.00
2022-10-18T14:31:13.261Z,101458.81
2022-10-18T14:33:35.636Z,101476.78
2022-10-18T14:35:37.382Z,101484.63
2022-10-18T14:37:40.426Z,101480.44
2022-10-18T14:39:42.394Z,101464.53
2022-10-18T14:41:59.093Z,101456.06
2022-10-18T14:44:16.195Z,101444.13
2022-10-18T14:46:23.783Z,101439.53
2022-10-18T14:48:25.507Z,101427.03
2022-10-18T14:50:30.594Z,101423.59
2022-10-18T14:52:35.653Z,101426.44
2022-10-18T14:54:38.231Z,101434.03
2022-10-18T14:56:42.738Z,101436.19
2022-10-18T14:58:44.824Z,101437.16
2022-10-18T15:00:48.575Z,101429.84
2022-10-18T15:02:50.860Z,101434.50
2022-10-18T15:05:08.385Z,101460.25
2022-10-18T15:07:16.205Z,101483.09
2022-10-18T15:09:23.337Z,101496.63
2022-10-18T15:11:27.508Z,101515.44
2022-10-18T15:13:31.663Z,101511.78
2022-10-18T15:15:34.831Z,101512.97
2022-10-18T15:17:36.898Z,101497.72
2022-10-18T15:19:38.868Z,101487.28
2022-10-18T15:22:30.278Z,101421.44
2022-10-18T15:24:37.325Z,101466.94
2022-10-18T15:26:45.433Z,101464.13
2022-10-18T15:28:50.662Z,101473.25
2022-10-18T15:30:52.608Z,101484.44
2022-10-18T15:33:00.205Z,101482.41
2022-10-18T15:35:29.778Z,101486.78
2022-10-18T15:37:40.569Z,101490.03
2022-10-18T15:39:42.520Z,101490.25
2022-10-18T15:41:57.224Z,101486.63
2022-10-18T15:44:20.142Z,101495.00
2022-10-18T15:46:32.453Z,101496.28
2022-10-18T15:48:37.949Z,101515.25
2022-10-18T15:50:41.658Z,101523.34
2022-10-18T15:52:43.487Z,101522.38
2022-10-18T15:54:45.237Z,101520.31
2022-10-18T15:56:47.050Z,101534.03
2022-10-18T15:58:49.077Z,101521.59
2022-10-18T16:00:56.172Z,101519.09
2022-10-18T16:02:58.365Z,101515.38
2022-10-18T16:05:01.745Z,101493.22
2022-10-18T16:07:03.444Z,101493.63
2022-10-18T16:09:05.660Z,101495.63
2022-10-18T16:11:22.085Z,101483.00
2022-10-18T16:13:23.758Z,101486.06
2022-10-18T16:15:25.800Z,101476.47
2022-10-18T16:17:27.555Z,101481.03
2022-10-18T16:19:30.260Z,101487.38
2022-10-18T16:21:37.207Z,101506.97
2022-10-18T16:23:38.953Z,101501.66
2022-10-18T16:25:40.663Z,101528.47
2022-10-18T16:27:42.660Z,101530.72
2022-10-18T16:29:44.417Z,101537.19
2022-10-18T16:31:46.264Z,101557.50
2022-10-18T16:33:49.518Z,101548.97
2022-10-18T16:35:52.002Z,101535.91
2022-10-18T16:37:53.723Z,101528.84
2022-10-18T16:39:55.637Z,101518.88
2022-10-18T16:41:57.425Z,101511.41
2022-10-18T16:43:59.335Z,101504.41
2022-10-18T16:46:05.874Z,101500.97
2022-10-18T16:48:09.372Z,101512.44
2022-10-18T16:50:19.195Z,101502.63
2022-10-18T16:52:20.877Z,101500.31
2022-10-18T16:54:23.379Z,101496.81
2022-10-18T16:56:30.791Z,101492.63
2022-10-18T16:58:33.304Z,101488.50
2022-10-18T17:00:35.138Z,101483.91
2022-10-18T17:02:36.885Z,101467.97
2022-10-18T17:04:38.602Z,101458.47
2022-10-18T17:06:40.711Z,101459.88
2022-10-18T17:08:43.036Z,101474.41
2022-10-18T17:10:45.118Z,101471.47
2022-10-18T17:12:47.060Z,101478.47
2022-10-18T17:14:48.769Z,101492.88
2022-10-18T17:16:54.684Z,101515.41
2022-10-18T17:19:05.070Z,101530.19
2022-10-18T17:21:06.772Z,101538.78
2022-10-18T17:23:09.151Z,101537.66
2022-10-18T17:25:11.107Z,101539.19
2022-10-18T17:27:12.841Z,101545.06
2022-10-18T17:29:14.697Z,101539.34
2022-10-18T17:31:16.630Z,101546.19
2022-10-18T17:33:18.323Z,101537.06
2022-10-18T17:35:20.091Z,101535.09
2022-10-18T17:37:21.992Z,101535.38
2022-10-18T17:39:23.914Z,101548.00
2022-10-18T17:41:26.074Z,101524.19
2022-10-18T17:43:28.186Z,101537.78
2022-10-18T17:45:29.988Z,101533.56
2022-10-18T17:47:31.944Z,101541.16
2022-10-18T17:49:34.036Z,101532.19
2022-10-18T17:51:35.745Z,101514.03
2022-10-18T17:53:37.611Z,101521.34
2022-10-18T17:55:40.485Z,101525.19
2022-10-18T17:57:43.624Z,101529.34
2022-10-18T17:59:47.921Z,101532.59
2022-10-18T18:01:49.814Z,101523.28
2022-10-18T18:04:02.511Z,101528.59
2022-10-18T18:06:14.567Z,101539.28
2022-10-18T18:08:16.612Z,101544.22
2022-10-18T18:10:18.298Z,101549.09
2022-10-18T18:12:20.062Z,101545.91
2022-10-18T18:14:23.263Z,101536.94
2022-10-18T18:16:27.725Z,101535.25
2022-10-18T18:18:29.491Z,101534.66
2022-10-18T18:20:31.357Z,101539.88
2022-10-18T18:22:33.692Z,101538.63
2022-10-18T18:24:36.497Z,101535.09
2022-10-18T18:26:39.208Z,101539.16
2022-10-18T18:28:41.069Z,101541.44
2022-10-18T18:30:42.963Z,101543.81
2022-10-18T18:32:44.799Z,101537.91
2022-10-18T18:34:46.539Z,101526.97
2022-10-18T18:36:49.320Z,101533.81
2022-10-18T18:38:55.524Z,101526.66
2022-10-18T18:41:21.491Z,101521.22
2022-10-18T18:43:23.617Z,101517.84
2022-10-18T18:45:25.643Z,101529.91
2022-10-18T18:47:27.452Z,101525.88
2022-10-18T18:49:29.402Z,101515.63
2022-10-18T18:51:31.279Z,101515.50
2022-10-18T18:53:33.029Z,101517.19
2022-10-18T18:55:34.752Z,101516.88
2022-10-18T18:57:36.768Z,101513.22
2022-10-18T18:59:38.490Z,101517.28
2022-10-18T19:01:41.270Z,101514.03
2022-10-18T19:03:44.714Z,101508.34
2022-10-18T19:05:46.499Z,101517.84
2022-10-18T19:07:49.084Z,101521.78
2022-10-18T19:09:51.115Z,101518.03
2022-10-18T19:11:55.356Z,101512.63
2022-10-18T19:14:02.109Z,101507.03
2022-10-18T19:16:36.283Z,101509.03
2022-10-18T19:18:38.142Z,101505.22
2022-10-18T19:20:39.865Z,101502.88
2022-10-18T19:22:42.492Z,101508.94
2022-10-18T19:24:44.235Z,101512.69
2022-10-18T19:27:08.745Z,101517.16
2022-10-18T19:29:17.363Z,101516.59
2022-10-18T19:31:19.209Z,101515.38
2022-10-18T19:33:41.499Z,101512.13
2022-10-18T19:35:57.331Z,101520.81
2022-10-18T19:37:59.137Z,101517.03
2022-10-18T19:40:00.838Z,101514.66
2022-10-18T19:42:16.006Z,101515.75
2022-10-18T19:44:21.198Z,101527.81
2022-10-18T19:46:24.148Z,101518.84
2022-10-18T19:48:25.919Z,101524.31
2022-10-18T19:50:27.713Z,101524.03
2022-10-18T19:52:29.434Z,101522.91
2022-10-18T19:54:31.528Z,101523.50
2022-10-18T19:56:33.662Z,101519.69
2022-10-18T19:58:36.202Z,101516.03
2022-10-18T20:00:38.040Z,101520.25
2022-10-18T20:02:39.813Z,101519.97
2022-10-18T20:04:41.509Z,101527.94
2022-10-18T20:06:43.396Z,101524.44
2022-10-18T20:08:45.293Z,101513.53
2022-10-18T20:10:47.131Z,101516.03
2022-10-18T20:12:49.063Z,101518.13
2022-10-18T20:14:51.051Z,101518.97
2022-10-18T20:16:55.156Z,101525.28
2022-10-18T20:18:58.875Z,101519.53
2022-10-18T20:21:00.529Z,101517.44
2022-10-18T20:23:02.309Z,101521.53
2022-10-18T20:25:04.377Z,101515.75
2022-10-18T20:27:06.131Z,101517.16
2022-10-18T20:29:07.971Z,101511.53
2022-10-18T20:31:19.798Z,101512.25
2022-10-18T20:33:21.651Z,101517.31
2022-10-18T20:35:23.401Z,101516.03
2022-10-18T20:37:25.148Z,101522.34
2022-10-18T20:39:26.962Z,101526.72
2022-10-18T20:41:31.405Z,101520.13
2022-10-18T20:43:33.721Z,101525.88
2022-10-18T20:45:35.404Z,101524.06
2022-10-18T20:47:37.138Z,101521.69
2022-10-18T20:49:38.929Z,101520.31
2022-10-18T20:51:41.334Z,101516.50
2022-10-18T20:53:43.696Z,101523.09
2022-10-18T20:55:45.511Z,101525.63
2022-10-18T20:57:47.452Z,101516.50
2022-10-18T20:59:49.293Z,101520.31
2022-10-18T21:01:51.172Z,101526.59
2022-10-18T21:03:54.853Z,101500.56
2022-10-18T21:05:56.424Z,101518.38
2022-10-18T21:07:58.903Z,101523.13
2022-10-18T21:10:00.660Z,101529.56
2022-10-18T21:12:02.422Z,101532.22
2022-10-18T21:14:06.604Z,101523.38
2022-10-18T21:16:08.371Z,101525.78
2022-10-18T21:18:10.051Z,101530.25
2022-10-18T21:20:12.061Z,101527.34
2022-10-18T21:22:13.769Z,101525.53
2022-10-18T21:24:15.475Z,101521.75
2022-10-18T21:26:23.861Z,101526.50
2022-10-18T21:28:25.694Z,101521.75
2022-10-18T21:30:27.419Z,101523.69
2022-10-18T21:32:29.437Z,101517.97
2022-10-18T21:34:31.325Z,101525.94
2022-10-18T21:36:36.934Z,101511.66
2022-10-18T21:38:39.396Z,101526.09
2022-10-18T21:40:41.291Z,101514.88
2022-10-18T21:42:43.009Z,101521.59
2022-10-18T21:44:45.039Z,101528.88
2022-10-18T21:46:46.925Z,101522.56
2022-10-18T21:48:51.710Z,101500.88
2022-10-18T21:50:54.419Z,101520.59
2022-10-18T21:52:56.191Z,101524.38
2022-10-18T21:54:57.857Z,101525.66
2022-10-18T21:56:59.576Z,101517.09
2022-10-18T21:59:02.377Z,101520.59
2022-10-18T22:01:21.722Z,101512.88
2022-10-18T22:03:23.490Z,101516.94
2022-10-18T22:05:25.278Z,101520.16
2022-10-18T22:07:26.967Z,101524.78
2022-10-18T22:09:28.738Z,101525.47
2022-10-18T22:11:33.562Z,101527.56
2022-10-18T22:13:35.567Z,101511.59
2022-10-18T22:17:44.107Z,101515.94
2022-10-18T22:19:45.877Z,101516.75
2022-10-18T22:21:47.719Z,101518.25
2022-10-18T22:23:51.820Z,101516.41
2022-10-18T22:25:53.564Z,101516.41
2022-10-18T22:27:55.283Z,101512.31
2022-10-18T22:29:57.030Z,101504.78
2022-10-18T22:31:58.744Z,101515.53
2022-10-18T22:34:03.454Z,101510.59
2022-10-18T22:36:05.389Z,101507.56
2022-10-18T22:38:07.073Z,101511.13
2022-10-18T22:40:09.730Z,101509.75
2022-10-18T22:42:11.406Z,101510.16
2022-10-18T22:44:14.887Z,101496.59
2022-10-18T22:46:17.543Z,101515.56
2022-10-18T22:48:19.523Z,101504.81
2022-10-18T22:50:21.204Z,101498.75
2022-10-18T22:52:23.138Z,101457.81
2022-10-18T22:54:24.989Z,101490.88
2022-10-18T22:56:26.671Z,101497.75
2022-10-18T22:58:28.923Z,101491.00
2022-10-18T23:00:30.716Z,101490.28
2022-10-18T23:02:32.626Z,101494.63
2022-10-18T23:04:34.851Z,101498.78
2022-10-18T23:06:36.827Z,101494.44
2022-10-18T23:08:38.555Z,101501.97
2022-10-18T23:10:42.195Z,101500.28
2022-10-18T23:12:44.082Z,101502.88
2022-10-18T23:14:45.799Z,101494.00
2022-10-18T23:16:47.588Z,101490.38
2022-10-18T23:18:56.084Z,101493.22
2022-10-18T23:21:15.910Z,101490.84
2022-10-18T23:23:17.837Z,101495.56
2022-10-18T23:25:20.057Z,101490.84
2022-10-18T23:27:21.739Z,101488.69
2022-10-18T23:31:43.902Z,101484.63
2022-10-18T23:33:47.467Z,101488.56
2022-10-18T23:35:49.271Z,101477.75
2022-10-18T23:37:51.970Z,101475.50
2022-10-18T23:39:53.723Z,101472.84
2022-10-18T23:41:55.399Z,101472.53
2022-10-18T23:43:57.351Z,101469.53
2022-10-18T23:45:59.079Z,101473.03
2022-10-18T23:48:00.793Z,101477.13
2022-10-18T23:50:02.747Z,101482.34
2022-10-18T23:52:04.647Z,101475.00
2022-10-18T23:54:06.337Z,101472.66
2022-10-18T23:56:13.539Z,101476.47
2022-10-18T23:58:15.275Z,101475.00
